Frecheirinha, Brazil
Current Conditions -  °F | °C
As of 12:00 PM on Monday 22 Dec 2014 (Local Time) from SBPB Reporting Station
Clear Clear  
Wind Chill: 91°   Ceiling: Unl
Heat Index: 100°   Visibility: 6mi
Dew Point: 73°   Wind: 23mph
Humidity: 55%   Direction: 90°E
Pressure: 29.88"   Gusts: NA
Location:  3.76°S, 40.82°W
Report Text: SBPB 221500Z 09020KT CAVOK 33/23 Q1012
Loading
Personal Weather Stations






























Interactive Weather Map New forecast layout! Learn more

10-Day Weather Forecast

Advertisements
Track Severe Weather on mobile